createdAt,value
2022-09-14T00:02:04.420Z,114.00
2022-09-14T00:04:30.713Z,94.32
2022-09-14T00:06:56.981Z,88.53
2022-09-14T00:09:23.262Z,92.55
2022-09-14T00:11:49.610Z,82.25
2022-09-14T00:14:15.863Z,89.85
2022-09-14T00:16:42.275Z,92.55
2022-09-14T00:19:08.708Z,85.30
2022-09-14T00:21:35.026Z,80.05
2022-09-14T00:24:03.148Z,78.05
2022-09-14T00:26:29.403Z,72.63
2022-09-14T00:28:55.672Z,69.25
2022-09-14T00:31:21.983Z,65.22
2022-09-14T00:33:48.405Z,68.38
2022-09-14T00:36:14.697Z,73.10
2022-09-14T00:38:41.738Z,74.43
2022-09-14T00:41:07.929Z,68.27
2022-09-14T00:43:34.198Z,64.65
2022-09-14T00:46:00.534Z,66.35
2022-09-14T00:48:26.843Z,64.03
2022-09-14T00:50:53.106Z,62.15
2022-09-14T00:53:19.396Z,66.03
2022-09-14T00:55:45.651Z,79.18
2022-09-14T00:58:11.901Z,80.68
2022-09-14T01:00:38.205Z,87.00
2022-09-14T01:03:04.468Z,84.07
2022-09-14T01:05:30.761Z,66.45
2022-09-14T01:07:57.013Z,81.40
2022-09-14T01:10:23.269Z,76.43
2022-09-14T01:12:49.535Z,102.38
2022-09-14T01:15:17.028Z,92.70
2022-09-14T01:17:43.279Z,99.97
2022-09-14T01:20:10.365Z,102.35
2022-09-14T01:22:36.560Z,103.27
2022-09-14T01:25:02.825Z,108.18
2022-09-14T01:27:29.089Z,107.05
2022-09-14T01:29:55.356Z,111.65
2022-09-14T01:32:21.616Z,99.22
2022-09-14T01:34:47.965Z,115.03
2022-09-14T01:37:14.239Z,136.30
2022-09-14T01:39:40.491Z,132.65
2022-09-14T01:42:06.757Z,103.70
2022-09-14T01:44:33.004Z,89.47
2022-09-14T01:46:59.255Z,91.88
2022-09-14T01:49:25.529Z,120.18
2022-09-14T01:51:51.788Z,115.75
2022-09-14T01:54:18.103Z,143.52
2022-09-14T01:56:44.393Z,124.85
2022-09-14T01:59:10.709Z,122.68
2022-09-14T02:01:36.978Z,123.60
2022-09-14T02:04:03.352Z,143.85
2022-09-14T02:06:29.831Z,119.57
2022-09-14T02:08:56.256Z,133.82
2022-09-14T02:11:22.515Z,152.18
2022-09-14T02:13:48.771Z,151.48
2022-09-14T02:16:15.058Z,159.30
2022-09-14T02:18:43.447Z,174.13
2022-09-14T02:21:09.703Z,176.73
2022-09-14T02:23:35.988Z,177.52
2022-09-14T02:26:02.242Z,153.13
2022-09-14T02:28:28.533Z,160.60
2022-09-14T02:30:55.135Z,205.27
2022-09-14T02:33:21.484Z,213.50
2022-09-14T02:35:47.747Z,203.43
2022-09-14T02:38:14.193Z,196.63
2022-09-14T02:40:40.847Z,176.27
2022-09-14T02:43:07.119Z,169.95
2022-09-14T02:45:33.599Z,146.75
2022-09-14T02:47:59.861Z,144.38
2022-09-14T02:50:26.113Z,140.75
2022-09-14T02:52:52.545Z,146.00
2022-09-14T02:55:19.018Z,146.20
2022-09-14T02:57:45.275Z,123.97
2022-09-14T03:00:11.528Z,180.55
2022-09-14T03:02:37.794Z,216.80
2022-09-14T03:05:04.061Z,163.45
2022-09-14T03:07:30.310Z,91.68
2022-09-14T03:09:56.566Z,68.32
2022-09-14T03:12:22.824Z,74.35
2022-09-14T03:14:49.086Z,78.63
2022-09-14T03:17:15.353Z,93.78
2022-09-14T03:19:41.817Z,78.82
2022-09-14T03:22:08.071Z,77.43
2022-09-14T03:24:34.596Z,69.65
2022-09-14T03:27:00.868Z,72.05
2022-09-14T03:29:27.121Z,72.68
2022-09-14T03:31:53.448Z,71.75
2022-09-14T03:34:19.744Z,75.38
2022-09-14T03:36:46.000Z,68.78
2022-09-14T03:39:12.444Z,70.05
2022-09-14T03:41:38.915Z,69.47
2022-09-14T03:44:05.174Z,71.53
2022-09-14T03:46:31.506Z,66.95
2022-09-14T03:48:57.814Z,66.13
2022-09-14T03:51:24.073Z,65.18
2022-09-14T03:53:50.475Z,68.88
2022-09-14T03:56:16.928Z,69.50
2022-09-14T03:58:43.227Z,70.78
2022-09-14T04:01:09.562Z,65.32
2022-09-14T04:03:35.828Z,69.72
2022-09-14T04:06:05.251Z,64.38
2022-09-14T04:08:31.553Z,66.47
2022-09-14T04:10:57.815Z,60.75
2022-09-14T04:13:24.111Z,63.67
2022-09-14T04:15:50.493Z,57.50
2022-09-14T04:18:16.769Z,56.92
2022-09-14T04:20:43.064Z,58.50
2022-09-14T04:23:09.324Z,62.50
2022-09-14T04:25:35.645Z,59.70
2022-09-14T04:28:19.715Z,56.63
2022-09-14T04:30:46.623Z,58.83
2022-09-14T04:33:12.885Z,58.45
2022-09-14T04:35:39.143Z,50.55
2022-09-14T04:38:05.436Z,51.63
2022-09-14T04:40:31.768Z,55.88
2022-09-14T04:42:58.072Z,56.50
2022-09-14T04:45:24.345Z,54.40
2022-09-14T04:47:50.609Z,61.95
2022-09-14T04:50:16.970Z,64.53
2022-09-14T04:52:43.242Z,62.38
2022-09-14T04:55:10.188Z,65.18
2022-09-14T04:57:36.449Z,65.63
2022-09-14T05:00:02.709Z,62.85
2022-09-14T05:02:30.930Z,65.32
2022-09-14T05:04:58.762Z,83.63
2022-09-14T05:07:25.057Z,79.13
2022-09-14T05:09:51.337Z,77.22
2022-09-14T05:12:17.587Z,77.10
2022-09-14T05:14:43.862Z,77.50
2022-09-14T05:17:10.412Z,84.28
2022-09-14T05:19:36.692Z,77.75
2022-09-14T05:22:02.953Z,75.57
2022-09-14T05:24:29.219Z,78.00
2022-09-14T05:27:00.096Z,76.05
2022-09-14T05:29:27.335Z,77.93
2022-09-14T05:31:53.623Z,84.43
2022-09-14T05:34:19.896Z,86.03
2022-09-14T05:36:46.202Z,92.32
2022-09-14T05:39:13.545Z,86.32
2022-09-14T05:41:39.796Z,83.15
2022-09-14T05:44:06.209Z,85.45
2022-09-14T05:46:32.550Z,85.95
2022-09-14T05:48:58.835Z,104.18
2022-09-14T05:51:25.100Z,108.20
2022-09-14T05:53:51.401Z,69.50
2022-09-14T05:56:17.688Z,115.22
2022-09-14T05:58:44.030Z,111.03
2022-09-14T06:01:10.305Z,92.90
2022-09-14T06:03:36.640Z,83.53
2022-09-14T06:06:02.910Z,95.80
2022-09-14T06:08:29.246Z,92.75
2022-09-14T06:10:55.510Z,108.25
2022-09-14T06:13:23.309Z,101.18
2022-09-14T06:15:49.576Z,99.65
2022-09-14T06:18:15.839Z,100.38
2022-09-14T06:20:42.096Z,94.10
2022-09-14T06:23:08.424Z,95.15
2022-09-14T06:25:34.703Z,73.68
2022-09-14T06:28:00.988Z,65.45
2022-09-14T06:30:27.750Z,59.67
2022-09-14T06:32:54.021Z,56.67
2022-09-14T06:35:20.860Z,52.42
2022-09-14T06:37:47.157Z,52.40
2022-09-14T06:40:13.448Z,51.97
2022-09-14T06:42:39.728Z,52.65
2022-09-14T06:45:06.092Z,53.03
2022-09-14T06:47:32.406Z,50.78
2022-09-14T06:49:58.998Z,52.50
2022-09-14T06:52:25.297Z,54.45
2022-09-14T06:54:51.571Z,51.25
2022-09-14T06:57:17.844Z,51.42
2022-09-14T06:59:44.682Z,54.58
2022-09-14T07:02:11.002Z,50.55
2022-09-14T07:04:37.307Z,52.75
2022-09-14T07:07:03.568Z,54.80
2022-09-14T07:09:31.654Z,53.28
2022-09-14T07:11:57.917Z,51.55
2022-09-14T07:14:24.182Z,56.60
2022-09-14T07:16:50.463Z,55.17
2022-09-14T07:19:16.735Z,57.13
2022-09-14T07:21:43.051Z,51.25
2022-09-14T07:24:09.345Z,56.13
2022-09-14T07:26:39.374Z,54.30
2022-09-14T07:29:06.115Z,54.83
2022-09-14T07:31:32.376Z,55.95
2022-09-14T07:33:58.657Z,53.75
2022-09-14T07:36:25.136Z,50.17
2022-09-14T07:38:52.985Z,46.55
2022-09-14T07:41:20.485Z,44.90
2022-09-14T07:43:46.772Z,42.77
2022-09-14T07:46:13.059Z,46.55
2022-09-14T07:48:39.409Z,55.38
2022-09-14T07:51:05.745Z,55.72
2022-09-14T07:53:32.880Z,54.47
2022-09-14T07:55:59.430Z,50.95
2022-09-14T07:58:25.737Z,49.22
2022-09-14T08:00:52.100Z,54.35
2022-09-14T08:03:18.463Z,52.42
2022-09-14T08:05:44.715Z,52.60
2022-09-14T08:08:10.984Z,50.90
2022-09-14T08:10:37.522Z,52.75
2022-09-14T08:13:03.945Z,52.75
2022-09-14T08:15:31.714Z,59.03
2022-09-14T08:17:57.979Z,56.38
2022-09-14T08:20:24.251Z,56.03
2022-09-14T08:22:50.506Z,54.08
2022-09-14T08:25:17.071Z,61.20
2022-09-14T08:27:43.329Z,60.08
2022-09-14T08:30:10.135Z,66.18
2022-09-14T08:32:36.455Z,58.20
2022-09-14T08:35:02.735Z,59.47
2022-09-14T08:37:29.049Z,55.95
2022-09-14T08:39:55.325Z,57.17
2022-09-14T08:42:22.909Z,53.10
2022-09-14T08:44:49.171Z,52.55
2022-09-14T08:47:15.497Z,53.40
2022-09-14T08:49:41.885Z,54.53
2022-09-14T08:52:08.146Z,60.20
2022-09-14T08:54:34.415Z,59.47
2022-09-14T08:57:01.125Z,60.08
2022-09-14T08:59:27.491Z,59.75
2022-09-14T09:01:53.767Z,59.97
2022-09-14T09:04:20.083Z,65.32
2022-09-14T09:06:46.380Z,75.50
2022-09-14T09:09:12.636Z,80.80
2022-09-14T09:11:38.919Z,90.90
2022-09-14T09:14:05.179Z,94.50
2022-09-14T09:16:31.561Z,94.75
2022-09-14T09:18:57.868Z,88.60
2022-09-14T09:21:24.161Z,80.30
2022-09-14T09:23:50.478Z,81.07
2022-09-14T09:26:16.952Z,89.70
2022-09-14T09:28:43.240Z,78.05
2022-09-14T09:31:14.469Z,81.60
2022-09-14T09:33:41.054Z,73.07
2022-09-14T09:36:08.083Z,76.35
2022-09-14T09:38:38.024Z,78.70
2022-09-14T09:41:04.286Z,73.78
2022-09-14T09:43:48.310Z,87.43
2022-09-14T09:46:15.055Z,78.72
2022-09-14T09:48:41.724Z,86.03
2022-09-14T09:51:08.030Z,84.15
2022-09-14T09:53:34.298Z,108.07
2022-09-14T09:56:00.555Z,110.70
2022-09-14T09:58:26.833Z,100.07
2022-09-14T10:00:53.148Z,112.82
2022-09-14T10:03:19.458Z,104.15
2022-09-14T10:05:45.726Z,99.82
2022-09-14T10:08:12.922Z,118.55
2022-09-14T10:10:39.224Z,100.22
2022-09-14T10:13:05.490Z,74.45
2022-09-14T10:15:31.752Z,62.10
2022-09-14T10:17:58.025Z,60.60
2022-09-14T10:20:24.295Z,67.22
2022-09-14T10:22:50.560Z,67.47
2022-09-14T10:25:17.440Z,54.88
2022-09-14T10:27:43.930Z,63.55
2022-09-14T10:30:10.460Z,69.22
2022-09-14T10:32:37.829Z,66.50
2022-09-14T10:35:04.346Z,63.10
2022-09-14T10:37:31.998Z,64.90
2022-09-14T10:39:58.333Z,62.83
2022-09-14T10:42:24.695Z,61.42
2022-09-14T10:44:50.958Z,57.80
2022-09-14T10:47:17.219Z,60.80
2022-09-14T10:49:43.534Z,57.10
2022-09-14T10:52:10.783Z,51.20
2022-09-14T10:54:37.112Z,51.88
2022-09-14T10:57:04.120Z,51.22
2022-09-14T10:59:31.797Z,50.20
2022-09-14T11:01:58.464Z,54.95
2022-09-14T11:04:24.800Z,65.78
2022-09-14T11:06:51.065Z,63.33
2022-09-14T11:09:17.323Z,58.45
2022-09-14T11:11:43.580Z,68.82
2022-09-14T11:14:09.861Z,52.13
2022-09-14T11:16:36.125Z,60.10
2022-09-14T11:19:02.391Z,66.47
2022-09-14T11:21:28.750Z,76.80
2022-09-14T11:23:58.974Z,83.88
2022-09-14T11:26:25.427Z,71.78
2022-09-14T11:28:51.704Z,67.10
2022-09-14T11:31:18.047Z,72.65
2022-09-14T11:33:44.370Z,67.13
2022-09-14T11:36:10.685Z,71.80
2022-09-14T11:38:36.993Z,77.72
2022-09-14T11:41:03.261Z,84.03
2022-09-14T11:43:29.744Z,81.00
2022-09-14T11:45:56.114Z,85.05
2022-09-14T11:51:08.913Z,63.75
2022-09-14T11:53:35.223Z,71.05
2022-09-14T11:56:01.519Z,80.80
2022-09-14T11:58:29.545Z,78.53
2022-09-14T12:00:55.800Z,73.13
2022-09-14T12:03:22.160Z,75.85
2022-09-14T12:05:48.518Z,70.05
2022-09-14T12:08:14.791Z,69.68
2022-09-14T12:10:45.299Z,76.90
2022-09-14T12:13:12.171Z,68.28
2022-09-14T12:15:40.974Z,70.82
2022-09-14T12:18:07.352Z,72.45
2022-09-14T12:20:33.636Z,59.30
2022-09-14T12:22:59.897Z,67.70
2022-09-14T12:25:26.143Z,78.60
2022-09-14T12:27:52.416Z,75.22
2022-09-14T12:30:18.682Z,70.80
2022-09-14T12:32:44.942Z,77.65
2022-09-14T12:35:11.191Z,86.10
2022-09-14T12:37:37.451Z,73.57
2022-09-14T12:40:04.013Z,65.97
2022-09-14T12:42:32.052Z,55.30
2022-09-14T12:47:24.504Z,50.17
2022-09-14T12:49:50.761Z,52.35
2022-09-14T12:52:17.112Z,58.85
2022-09-14T12:54:45.226Z,62.63
2022-09-14T12:57:14.349Z,70.30
2022-09-14T12:59:40.625Z,62.85
2022-09-14T13:02:06.986Z,56.50
2022-09-14T13:04:33.363Z,46.35
2022-09-14T13:06:59.673Z,46.05
2022-09-14T13:09:29.117Z,48.10
2022-09-14T13:11:55.397Z,58.65
2022-09-14T13:14:21.648Z,54.92
2022-09-14T13:16:47.906Z,59.95
2022-09-14T13:19:15.211Z,53.38
2022-09-14T13:21:41.517Z,53.42
2022-09-14T13:24:07.768Z,53.55
2022-09-14T13:26:34.424Z,49.15
2022-09-14T13:29:00.724Z,50.88
2022-09-14T13:31:27.130Z,49.47
2022-09-14T13:33:53.407Z,46.53
2022-09-14T13:36:19.665Z,47.10
2022-09-14T13:38:45.937Z,46.88
2022-09-14T13:41:12.197Z,50.10
2022-09-14T13:43:38.443Z,46.40
2022-09-14T13:46:04.788Z,43.85
2022-09-14T13:48:31.160Z,43.70
2022-09-14T13:50:57.507Z,42.45
2022-09-14T13:53:23.783Z,44.67
2022-09-14T13:55:50.080Z,46.50
2022-09-14T13:58:16.357Z,45.22
2022-09-14T14:00:42.628Z,45.35
2022-09-14T14:03:08.875Z,44.17
2022-09-14T14:05:35.150Z,48.22
2022-09-14T14:08:01.467Z,44.88
2022-09-14T14:10:27.747Z,44.97
2022-09-14T14:12:53.998Z,43.42
2022-09-14T14:15:20.299Z,44.25
2022-09-14T14:17:46.583Z,41.55
2022-09-14T14:20:12.886Z,45.85
2022-09-14T14:22:39.223Z,46.45
2022-09-14T14:25:13.978Z,46.58
2022-09-14T14:27:40.604Z,45.47
2022-09-14T14:30:06.900Z,43.85
2022-09-14T14:32:33.440Z,46.60
2022-09-14T14:34:59.697Z,42.30
2022-09-14T14:37:25.963Z,45.85
2022-09-14T14:39:52.350Z,46.75
2022-09-14T14:42:18.703Z,46.30
2022-09-14T14:44:45.043Z,53.55
2022-09-14T14:47:11.393Z,50.83
2022-09-14T14:49:37.710Z,48.78
2022-09-14T14:52:04.279Z,45.85
2022-09-14T14:54:30.527Z,43.17
2022-09-14T14:56:56.808Z,44.10
2022-09-14T14:59:23.069Z,44.08
2022-09-14T15:01:49.329Z,47.88
2022-09-14T15:04:15.633Z,48.05
2022-09-14T15:06:42.173Z,57.63
2022-09-14T15:09:09.674Z,68.30
2022-09-14T15:11:38.229Z,65.78
2022-09-14T15:14:04.517Z,61.28
2022-09-14T15:16:30.793Z,62.78
2022-09-14T15:18:57.114Z,64.75
2022-09-14T15:21:23.710Z,67.32
2022-09-14T15:23:50.107Z,64.50
2022-09-14T15:26:16.459Z,64.90
2022-09-14T15:28:42.719Z,60.33
2022-09-14T15:31:09.015Z,62.17
2022-09-14T15:33:35.301Z,72.65
2022-09-14T15:36:01.613Z,102.57
2022-09-14T15:38:27.927Z,88.03
2022-09-14T15:40:54.215Z,79.60
2022-09-14T15:43:20.484Z,94.75
2022-09-14T15:45:46.817Z,84.15
2022-09-14T15:48:13.517Z,55.38
2022-09-14T15:50:39.775Z,49.78
2022-09-14T15:53:06.035Z,48.40
2022-09-14T15:55:32.344Z,46.70
2022-09-14T15:57:58.604Z,61.03
2022-09-14T16:00:24.861Z,81.35
2022-09-14T16:02:51.141Z,59.58
2022-09-14T16:05:18.864Z,51.13
2022-09-14T16:07:45.184Z,48.67
2022-09-14T16:10:11.435Z,47.30
2022-09-14T16:12:37.700Z,46.55
2022-09-14T16:15:03.962Z,52.17
2022-09-14T16:17:30.217Z,50.35
2022-09-14T16:19:56.567Z,49.38
2022-09-14T16:22:25.140Z,55.67
2022-09-14T16:24:51.499Z,73.35
2022-09-14T16:27:17.764Z,80.32
2022-09-14T16:29:44.047Z,65.90
2022-09-14T16:32:10.403Z,75.38
2022-09-14T16:34:36.755Z,69.68
2022-09-14T16:37:04.236Z,72.88
2022-09-14T16:39:31.579Z,71.25
2022-09-14T16:41:58.542Z,69.75
2022-09-14T16:44:24.743Z,67.83
2022-09-14T16:46:51.005Z,76.30
2022-09-14T16:49:17.260Z,71.07
2022-09-14T16:51:43.527Z,76.80
2022-09-14T16:54:09.784Z,77.90
2022-09-14T16:56:36.034Z,98.22
2022-09-14T16:59:02.342Z,81.78
2022-09-14T17:01:28.818Z,65.50
2022-09-14T17:03:55.167Z,62.65
2022-09-14T17:06:21.430Z,63.70
2022-09-14T17:08:47.690Z,61.33
2022-09-14T17:11:13.956Z,73.82
2022-09-14T17:13:40.313Z,76.55
2022-09-14T17:16:07.014Z,79.70
2022-09-14T17:18:33.361Z,74.95
2022-09-14T17:20:59.624Z,72.07
2022-09-14T17:23:25.881Z,72.55
2022-09-14T17:25:52.354Z,79.50
2022-09-14T17:28:18.612Z,72.47
2022-09-14T17:30:44.993Z,72.68
2022-09-14T17:33:11.273Z,69.97
2022-09-14T17:35:37.537Z,71.22
2022-09-14T17:38:03.802Z,72.28
2022-09-14T17:40:30.326Z,67.43
2022-09-14T17:42:56.608Z,71.22
2022-09-14T17:45:23.119Z,68.22
2022-09-14T17:47:49.385Z,64.75
2022-09-14T17:50:16.643Z,72.57
2022-09-14T17:52:42.899Z,69.72
2022-09-14T17:55:09.220Z,70.40
2022-09-14T17:57:35.999Z,67.78
2022-09-14T18:00:02.298Z,65.82
2022-09-14T18:02:28.559Z,64.10
2022-09-14T18:04:55.029Z,70.15
2022-09-14T18:07:21.291Z,76.82
2022-09-14T18:09:47.541Z,73.22
2022-09-14T18:12:15.816Z,72.72
2022-09-14T18:14:42.075Z,75.43
2022-09-14T18:17:08.347Z,71.40
2022-09-14T18:19:34.611Z,72.60
2022-09-14T18:22:00.867Z,72.93
2022-09-14T18:24:27.131Z,75.45
2022-09-14T18:26:53.389Z,76.32
2022-09-14T18:29:21.038Z,92.53
2022-09-14T18:31:47.385Z,103.78
2022-09-14T18:34:13.682Z,94.90
2022-09-14T18:36:39.943Z,67.28
2022-09-14T18:39:06.221Z,66.80
2022-09-14T18:41:34.027Z,84.53
2022-09-14T18:44:00.320Z,104.15
2022-09-14T18:46:28.372Z,109.97
2022-09-14T18:48:54.982Z,94.40
2022-09-14T18:51:21.301Z,121.55
2022-09-14T18:53:47.561Z,102.95
2022-09-14T18:56:13.836Z,102.55
2022-09-14T18:58:40.101Z,92.47
2022-09-14T19:01:06.391Z,84.00
2022-09-14T19:03:32.843Z,94.88
2022-09-14T19:05:59.381Z,98.57
2022-09-14T19:08:25.639Z,83.53
2022-09-14T19:10:51.916Z,93.05
2022-09-14T19:13:18.167Z,96.00
2022-09-14T19:15:44.524Z,108.97
2022-09-14T19:18:10.817Z,94.75
2022-09-14T19:21:02.170Z,127.75
2022-09-14T19:23:23.915Z,169.05
2022-09-14T19:25:50.381Z,194.23
2022-09-14T19:28:16.709Z,156.73
2022-09-14T19:30:43.223Z,164.15
2022-09-14T19:33:09.512Z,194.10
2022-09-14T19:35:36.737Z,178.48
2022-09-14T19:38:03.021Z,148.57
2022-09-14T19:40:29.356Z,124.80
2022-09-14T19:42:55.766Z,143.13
2022-09-14T19:45:22.072Z,196.43
2022-09-14T19:47:48.487Z,125.95
2022-09-14T19:50:14.749Z,157.88
2022-09-14T19:52:41.308Z,125.60
2022-09-14T19:55:07.575Z,162.63
2022-09-14T19:57:36.561Z,115.97
2022-09-14T20:00:02.830Z,188.95
2022-09-14T20:02:29.240Z,130.13
2022-09-14T20:04:55.691Z,204.18
2022-09-14T20:07:21.986Z,119.63
2022-09-14T20:09:48.292Z,162.32
2022-09-14T20:12:14.557Z,147.23
2022-09-14T20:14:40.994Z,181.38
2022-09-14T20:17:07.529Z,206.50
2022-09-14T20:19:35.866Z,162.40
2022-09-14T20:22:02.130Z,67.95
2022-09-14T20:24:28.404Z,64.38
2022-09-14T20:26:54.702Z,57.38
2022-09-14T20:29:20.993Z,59.33
2022-09-14T20:31:47.253Z,67.38
2022-09-14T20:34:13.651Z,66.85
2022-09-14T20:36:39.913Z,70.65
2022-09-14T20:39:06.193Z,88.53
2022-09-14T20:41:33.200Z,80.03
2022-09-14T20:43:59.403Z,63.97
2022-09-14T20:46:25.743Z,55.95
2022-09-14T20:48:52.093Z,56.25
2022-09-14T20:54:05.004Z,56.17
2022-09-14T20:56:31.280Z,56.20
2022-09-14T20:58:58.099Z,98.30
2022-09-14T21:01:24.525Z,168.75
2022-09-14T21:03:50.955Z,101.38
2022-09-14T21:06:17.807Z,105.97
2022-09-14T21:08:44.063Z,75.53
2022-09-14T21:11:10.875Z,60.78
2022-09-14T21:11:13.158Z,53.63
2022-09-14T21:13:37.141Z,61.83
2022-09-14T21:16:03.509Z,60.50
2022-09-14T21:18:29.779Z,68.30
2022-09-14T21:20:59.935Z,103.05
2022-09-14T21:23:28.617Z,154.65
2022-09-14T21:25:55.225Z,86.80
2022-09-14T21:28:21.487Z,126.60
2022-09-14T21:30:49.187Z,107.43
2022-09-14T21:33:16.400Z,73.28
2022-09-14T21:35:42.596Z,96.97
2022-09-14T21:38:09.119Z,74.63
2022-09-14T21:40:37.040Z,66.85
2022-09-14T21:45:29.476Z,88.32
2022-09-14T21:47:55.736Z,95.03
2022-09-14T21:50:21.996Z,125.75
2022-09-14T21:52:48.261Z,122.97
2022-09-14T21:55:14.540Z,95.18
2022-09-14T21:57:40.806Z,99.75
2022-09-14T22:00:07.236Z,101.93
2022-09-14T22:02:34.403Z,108.55
2022-09-14T22:05:00.764Z,119.53
2022-09-14T22:07:27.944Z,111.93
2022-09-14T22:09:54.204Z,104.00
2022-09-14T22:12:20.463Z,113.00
2022-09-14T22:14:46.763Z,129.18
2022-09-14T22:17:13.015Z,118.95
2022-09-14T22:19:39.943Z,101.53
2022-09-14T22:22:06.214Z,106.57
2022-09-14T22:24:37.376Z,131.50
2022-09-14T22:27:04.330Z,176.63
2022-09-14T22:29:30.601Z,125.65
2022-09-14T22:31:56.867Z,108.07
2022-09-14T22:34:24.373Z,98.57
2022-09-14T22:36:50.680Z,96.85
2022-09-14T22:39:16.956Z,75.15
2022-09-14T22:41:43.211Z,96.18
2022-09-14T22:44:09.470Z,88.28
2022-09-14T22:46:35.781Z,70.78
2022-09-14T22:49:02.127Z,87.00
2022-09-14T22:51:28.389Z,79.00
2022-09-14T22:53:54.646Z,83.82
2022-09-14T22:56:20.935Z,83.97
2022-09-14T22:58:47.185Z,85.55
2022-09-14T23:01:13.494Z,85.82
2022-09-14T23:03:39.792Z,82.43
2022-09-14T23:06:06.086Z,84.68
2022-09-14T23:08:32.608Z,64.15
2022-09-14T23:10:58.921Z,65.88
2022-09-14T23:13:25.178Z,83.30
2022-09-14T23:15:51.460Z,80.07
2022-09-14T23:18:17.725Z,73.47
2022-09-14T23:20:43.978Z,92.25
2022-09-14T23:23:10.245Z,85.78
2022-09-14T23:25:36.524Z,88.82
2022-09-14T23:28:02.788Z,82.05
2022-09-14T23:30:29.092Z,77.30
2022-09-14T23:32:55.577Z,74.78
2022-09-14T23:35:21.836Z,71.50
2022-09-14T23:37:48.111Z,76.45
2022-09-14T23:40:14.409Z,104.38
2022-09-14T23:42:40.723Z,108.03
2022-09-14T23:45:07.143Z,97.10
2022-09-14T23:47:33.413Z,107.95
2022-09-14T23:49:59.712Z,107.82
2022-09-14T23:52:25.980Z,116.32
2022-09-14T23:54:52.241Z,100.15
2022-09-14T23:57:18.533Z,100.50
2022-09-14T23:59:44.806Z,119.68
